< Typhoon 197819 1978 Season Typhoon 197821 >
Typhoon 197820 (KIT)
General InformationTrack Information on Google MapsDetailed Wind Information || Disaster Info.ResourceGoogle EarthGE AnimationAtom FeedGeoJSON
Detalied Best Track (Time Zone = UTC)
Year Month Day Hour Lat. Long. Pressure (hPa) Wind (kt) Class Image Chart
1978 9 20 06 12.4 127.5 1004 0 2 -- Chart
1978 9 20 12 12.4 128.6 1004 0 2 -- Chart
1978 9 20 18 12.9 129.0 1004 0 2 -- Chart
1978 9 21 00 13.4 129.0 1002 0 2 -- Chart
1978 9 21 06 13.8 128.0 1000 0 2 -- Chart
1978 9 21 12 14.1 127.0 998 0 2 -- Chart
1978 9 21 18 14.5 126.0 996 0 2 -- Chart
1978 9 22 00 14.7 125.0 996 0 2 -- Chart
1978 9 22 06 14.9 123.8 996 0 2 -- Chart
1978 9 22 12 15.5 119.5 998 0 2 -- Chart
1978 9 22 18 14.9 118.4 998 0 2 -- Chart
1978 9 23 00 14.8 117.4 996 0 2 -- Chart
1978 9 23 06 14.8 116.5 996 0 2 -- Chart
1978 9 23 12 15.1 115.5 994 35 3 -- Chart
1978 9 23 18 15.5 114.7 992 35 3 -- Chart
1978 9 24 00 15.9 113.9 992 35 3 -- Chart
1978 9 24 06 16.5 112.9 992 40 3 -- Chart
1978 9 24 12 17.0 112.0 992 40 3 -- Chart
1978 9 24 18 17.4 111.2 990 45 3 -- Chart
1978 9 25 00 17.7 110.4 990 50 4 -- Chart
1978 9 25 06 18.0 109.6 990 45 3 -- Chart
1978 9 25 12 18.1 109.0 990 45 3 -- Chart
1978 9 25 18 18.0 108.4 990 40 3 -- Chart
1978 9 26 00 17.8 107.6 990 40 3 -- Chart
1978 9 26 06 17.6 106.9 990 40 3 -- Chart
1978 9 26 12 17.3 105.9 992 35 3 -- Chart
1978 9 26 18 17.0 105.0 996 0 2 -- Chart
1978 9 27 00 16.8 104.5 1000 0 2 -- Chart
1978 9 27 06 16.3 103.7 1000 0 2 -- Chart
1978 9 27 12 16.0 103.0 1000 0 2 -- Chart
1978 9 27 18 15.7 102.0 1002 0 2 -- Chart
1978 9 28 00 15.0 101.0 1002 0 2 -- Chart
1978 9 28 06 15.0 100.0 1002 0 2 -- Chart
1978 9 28 12 15.0 99.0 1002 0 2 -- Chart
Japan Meteorological Agency Best Track Data | Correction Date : 1992-10-21
< Typhoon 197819 1978 Season Typhoon 197821 >

Help